Time;durP1;ratioP1;P1;durP2;ratioP2;P2;SDS_P1;SDS_P2;PMS_P1;PMS_P2;Temp;Humidity;BMP_temperature;BMP_pressure;BME280_temperature;BME280_humidity;BME280_pressure;Samples;Min_cycle;Max_cycle;Signal;HPM_P1;HPM_P2
2021/08/10 00:01:09;;;;;;;9.32;2.67;;;;;;;12.47;100.00;100578.41;4957091;28;20462;-80
2021/08/10 00:03:34;;;;;;;9.55;2.22;;;;;;;12.55;100.00;100572.09;4957321;29;20019;-80
2021/08/10 00:05:59;;;;;;;8.25;2.50;;;;;;;12.49;100.00;100571.41;4957765;29;20070;-80
2021/08/10 00:08:25;;;;;;;6.18;2.53;;;;;;;12.45;100.00;100570.66;4958657;28;20035;-80
2021/08/10 00:10:50;;;;;;;7.25;2.63;;;;;;;12.52;100.00;100566.13;4958218;28;20022;-80
2021/08/10 00:13:21;;;;;;;7.95;2.67;;;;;;;12.56;100.00;100560.84;4958878;29;20026;-80
2021/08/10 00:15:47;;;;;;;7.82;2.50;;;;;;;12.49;100.00;100563.63;4958574;28;20484;-80
2021/08/10 00:18:13;;;;;;;9.13;2.95;;;;;;;12.46;100.00;100556.75;4958223;28;20085;-80
2021/08/10 00:20:38;;;;;;;6.97;2.50;;;;;;;12.45;100.00;100560.25;4957362;28;20023;-80
2021/08/10 00:23:03;;;;;;;6.60;2.55;;;;;;;12.46;100.00;100555.91;4959136;28;20413;-80
2021/08/10 00:25:29;;;;;;;8.05;2.42;;;;;;;12.44;100.00;100555.94;4958935;28;20078;-80
2021/08/10 00:27:55;;;;;;;8.02;2.70;;;;;;;12.45;100.00;100557.66;4957339;29;20042;-80
2021/08/10 00:30:20;;;;;;;7.97;2.90;;;;;;;12.39;100.00;100556.06;4958453;28;20479;-80
2021/08/10 00:32:47;;;;;;;14.02;2.65;;;;;;;12.37;100.00;100556.97;4958371;28;20034;-80
2021/08/10 00:35:12;;;;;;;6.85;2.17;;;;;;;12.37;100.00;100546.56;4958369;28;20031;-80
2021/08/10 00:37:38;;;;;;;5.57;2.10;;;;;;;12.47;100.00;100558.47;4959398;28;20079;-80
2021/08/10 00:40:04;;;;;;;6.18;2.63;;;;;;;12.47;100.00;100552.38;4959241;28;20031;-80
2021/08/10 00:42:29;;;;;;;9.60;2.60;;;;;;;12.48;100.00;100561.91;4957406;28;20034;-80
2021/08/10 00:44:55;;;;;;;7.22;2.35;;;;;;;12.46;100.00;100556.75;4958590;28;20027;-80
2021/08/10 00:47:20;;;;;;;5.78;2.47;;;;;;;12.52;100.00;100553.13;4958118;28;20130;-80
2021/08/10 00:49:45;;;;;;;7.22;2.60;;;;;;;12.48;100.00;100552.38;4958358;28;20027;-80
2021/08/10 00:52:11;;;;;;;5.50;2.10;;;;;;;12.46;100.00;100554.13;4956943;28;20027;-80
2021/08/10 00:54:36;;;;;;;5.97;2.53;;;;;;;12.36;100.00;100553.53;4957257;29;20026;-80
2021/08/10 00:57:02;;;;;;;5.50;2.67;;;;;;;12.37;100.00;100552.63;4956855;29;20089;-80
2021/08/10 00:59:27;;;;;;;5.40;2.20;;;;;;;12.34;100.00;100557.91;4958382;28;20042;-80
2021/08/10 01:01:52;;;;;;;5.88;2.58;;;;;;;12.30;100.00;100553.69;4957252;28;20019;-81
2021/08/10 01:04:18;;;;;;;5.88;1.98;;;;;;;12.33;100.00;100561.41;4958624;28;20051;-80
2021/08/10 01:06:51;;;;;;;5.22;2.10;;;;;;;12.40;100.00;100551.69;4957563;29;20030;-80
2021/08/10 01:09:26;;;;;;;7.68;2.55;;;;;;;12.33;100.00;100552.75;4956962;29;20027;-80
2021/08/10 01:12:08;;;;;;;7.32;2.35;;;;;;;12.36;100.00;100553.53;4956550;28;20029;-80
2021/08/10 01:14:45;;;;;;;5.68;2.33;;;;;;;12.33;100.00;100551.00;4958866;28;20030;-80
2021/08/10 01:17:24;;;;;;;7.28;2.50;;;;;;;12.27;100.00;100552.91;4958074;28;20127;-80
2021/08/10 01:20:25;;;;;;;6.60;2.45;;;;;;;12.17;100.00;100537.53;4958286;28;20033;-80
2021/08/10 01:22:53;;;;;;;8.73;2.70;;;;;;;12.26;100.00;100543.41;4958005;28;20086;-80
2021/08/10 01:25:22;;;;;;;6.28;2.38;;;;;;;12.18;100.00;100536.63;4956619;29;20114;-80
2021/08/10 01:28:12;;;;;;;9.55;2.53;;;;;;;12.10;100.00;100536.00;4956401;29;20171;-80
2021/08/10 01:31:06;;;;;;;5.80;2.42;;;;;;;12.19;100.00;100535.78;4958150;28;20039;-80
2021/08/10 01:33:45;;;;;;;5.45;2.20;;;;;;;12.18;100.00;100541.00;4940553;29;20035;-80
2021/08/10 01:36:11;;;;;;;5.55;2.40;;;;;;;12.18;100.00;100541.00;4957846;28;20039;-80
2021/08/10 01:38:39;;;;;;;5.38;2.40;;;;;;;12.10;100.00;100540.31;4956983;29;20489;-80
2021/08/10 01:41:05;;;;;;;5.13;2.22;;;;;;;12.12;100.00;100538.53;4956758;28;20031;-80
2021/08/10 01:43:32;;;;;;;5.30;2.47;;;;;;;12.05;100.00;100537.00;4956851;29;20385;-80
2021/08/10 01:45:58;;;;;;;6.43;2.03;;;;;;;12.10;100.00;100533.41;4958241;28;20035;-80
2021/08/10 01:48:24;;;;;;;6.82;2.33;;;;;;;12.16;100.00;100534.97;4956229;29;20034;-80
2021/08/10 01:50:49;;;;;;;7.88;2.45;;;;;;;12.08;100.00;100542.97;4957671;28;20042;-80
2021/08/10 01:53:17;;;;;;;7.40;2.47;;;;;;;12.06;100.00;100536.94;4957550;29;20031;-80
2021/08/10 01:55:44;;;;;;;6.00;2.47;;;;;;;12.05;100.00;100534.41;4959515;29;20117;-80
2021/08/10 01:58:11;;;;;;;6.20;2.22;;;;;;;12.07;100.00;100532.59;4960970;28;20046;-80
2021/08/10 02:00:37;;;;;;;5.75;2.35;;;;;;;12.04;100.00;100535.28;4960770;28;20447;-81
2021/08/10 02:03:08;;;;;;;7.70;2.42;;;;;;;11.98;100.00;100531.09;4960336;28;20028;-80
2021/08/10 02:05:35;;;;;;;7.90;2.47;;;;;;;12.00;100.00;100541.44;4962246;29;20041;-80
2021/08/10 02:08:01;;;;;;;6.93;2.40;;;;;;;11.94;100.00;100543.28;4964618;28;20027;-81
2021/08/10 02:10:29;;;;;;;6.85;2.30;;;;;;;12.04;100.00;100543.94;4963267;28;20121;-81
2021/08/10 02:12:54;;;;;;;5.93;2.72;;;;;;;11.95;100.00;100546.78;4963968;28;20035;-81
2021/08/10 02:15:20;;;;;;;7.32;3.17;;;;;;;12.01;100.00;100538.81;4962308;29;20127;-80
2021/08/10 02:17:45;;;;;;;8.20;2.58;;;;;;;12.09;100.00;100536.88;4962196;29;20055;-80
2021/08/10 02:20:12;;;;;;;6.30;2.83;;;;;;;12.12;100.00;100541.16;4961993;29;20031;-80
2021/08/10 02:22:40;;;;;;;5.95;2.70;;;;;;;12.09;100.00;100542.06;4961252;28;20078;-80
2021/08/10 02:25:09;;;;;;;5.90;2.50;;;;;;;12.09;100.00;100536.88;4961464;29;20552;-80
2021/08/10 02:27:39;;;;;;;11.15;3.00;;;;;;;12.06;100.00;100536.09;4962488;28;20027;-80
2021/08/10 02:30:18;;;;;;;7.85;3.08;;;;;;;12.00;100.00;100524.09;4963163;28;20023;-80
2021/08/10 02:32:46;;;;;;;10.35;3.22;;;;;;;12.03;100.00;100529.22;4961941;29;20024;-80
2021/08/10 02:35:15;;;;;;;10.93;3.20;;;;;;;11.91;100.00;100532.97;4963624;28;20067;-80
2021/08/10 02:37:42;;;;;;;8.20;2.95;;;;;;;11.86;100.00;100534.00;4962642;29;20034;-80
2021/08/10 02:40:09;;;;;;;7.07;2.80;;;;;;;11.84;100.00;100539.19;4964562;28;20034;-80
2021/08/10 02:42:37;;;;;;;9.02;2.75;;;;;;;11.80;100.00;100541.91;4961119;28;20037;-80
2021/08/10 02:45:03;;;;;;;6.57;3.17;;;;;;;11.82;100.00;100538.34;4961727;28;20027;-80
2021/08/10 02:47:29;;;;;;;9.65;3.05;;;;;;;11.68;100.00;100533.50;4961599;29;20066;-81
2021/08/10 02:49:54;;;;;;;8.18;2.58;;;;;;;11.64;100.00;100534.47;4962174;28;20391;-80
2021/08/10 02:52:20;;;;;;;6.60;3.13;;;;;;;11.65;100.00;100536.16;4960824;28;20047;-80
2021/08/10 02:54:46;;;;;;;9.10;2.83;;;;;;;11.63;100.00;100534.47;4960958;29;20027;-80
2021/08/10 02:57:30;;;;;;;7.72;3.38;;;;;;;11.64;100.00;100534.47;4960853;29;20030;-80
2021/08/10 03:00:01;;;;;;;8.93;3.47;;;;;;;11.65;100.00;100535.31;4962516;28;20492;-80
2021/08/10 03:02:33;;;;;;;10.30;3.08;;;;;;;11.63;100.00;100537.94;4960864;28;20031;-80
2021/08/10 03:05:03;;;;;;;6.43;3.55;;;;;;;11.62;100.00;100532.78;4960534;29;20023;-80
2021/08/10 03:07:30;;;;;;;9.32;3.38;;;;;;;11.59;100.00;100535.44;4961077;29;20027;-80
2021/08/10 03:10:00;;;;;;;7.75;3.08;;;;;;;11.57;100.00;100535.47;4961442;29;20062;-80
2021/08/10 03:12:27;;;;;;;11.35;3.30;;;;;;;11.60;100.00;100529.34;4960588;28;20027;-80
2021/08/10 03:14:55;;;;;;;7.15;3.30;;;;;;;11.78;100.00;100531.53;4961113;28;20024;-81
2021/08/10 03:17:22;;;;;;;8.38;3.20;;;;;;;11.78;100.00;100535.88;4960683;29;20023;-81
2021/08/10 03:19:48;;;;;;;10.30;3.10;;;;;;;11.78;100.00;100538.47;4962065;28;20031;-80
2021/08/10 03:22:14;;;;;;;6.65;2.80;;;;;;;11.82;100.00;100542.69;4962390;28;20031;-81
2021/08/10 03:24:41;;;;;;;6.20;2.92;;;;;;;11.79;100.00;100537.56;4961416;28;20039;-80
2021/08/10 03:27:07;;;;;;;7.03;3.17;;;;;;;11.78;100.00;100531.53;4961613;28;20102;-80
2021/08/10 03:29:34;;;;;;;9.25;3.38;;;;;;;11.73;100.00;100534.25;4960462;29;20031;-80
2021/08/10 03:32:01;;;;;;;6.80;2.85;;;;;;;11.71;100.00;100532.56;4959216;28;20058;-80
2021/08/10 03:34:27;;;;;;;8.35;3.20;;;;;;;11.79;100.00;100517.63;4961159;28;20023;-80
2021/08/10 03:36:54;;;;;;;9.35;3.03;;;;;;;11.78;100.00;100522.88;4961110;28;20045;-80
2021/08/10 03:39:20;;;;;;;11.27;3.42;;;;;;;11.73;100.00;100523.84;4960002;29;20031;-80
2021/08/10 03:41:46;;;;;;;6.03;3.05;;;;;;;11.67;100.00;100526.59;4961139;28;20110;-80
2021/08/10 03:44:13;;;;;;;10.75;2.90;;;;;;;11.66;100.00;100519.66;4959670;29;20028;-80
2021/08/10 03:46:38;;;;;;;5.55;2.75;;;;;;;11.65;100.00;100520.56;4961119;28;20027;-81
2021/08/10 03:49:04;;;;;;;6.93;2.88;;;;;;;11.67;100.00;100526.59;4960276;29;20034;-80
2021/08/10 03:51:30;;;;;;;10.10;2.90;;;;;;;11.71;100.00;100523.03;4960889;28;20023;-80
2021/08/10 03:53:56;;;;;;;8.35;3.20;;;;;;;11.71;100.00;100520.44;4959048;29;20019;-80
2021/08/10 03:56:24;;;;;;;8.82;2.88;;;;;;;11.72;100.00;100523.88;4960984;28;20106;-80
2021/08/10 03:58:52;;;;;;;6.80;2.60;;;;;;;11.70;100.00;100528.28;4959695;29;20110;-80
2021/08/10 04:01:19;;;;;;;8.88;3.40;;;;;;;11.74;100.00;100527.31;4961074;28;20402;-80
2021/08/10 04:03:45;;;;;;;8.00;3.03;;;;;;;11.82;100.00;100519.31;4959311;29;20027;-80
2021/08/10 04:06:11;;;;;;;8.60;2.72;;;;;;;11.82;100.00;100520.16;4959305;28;20023;-80
2021/08/10 04:08:37;;;;;;;6.82;2.83;;;;;;;11.87;100.00;100522.69;4958754;29;20023;-80
2021/08/10 04:11:03;;;;;;;7.40;3.05;;;;;;;11.91;100.00;100537.31;4960943;28;20050;-80
2021/08/10 04:13:31;;;;;;;7.70;3.30;;;;;;;12.10;100.00;100533.41;4959266;29;20023;-80
2021/08/10 04:16:00;;;;;;;6.60;2.65;;;;;;;12.20;100.00;100544.41;4959347;29;20058;-80
2021/08/10 04:18:28;;;;;;;8.25;3.30;;;;;;;12.40;100.00;100538.69;4960438;28;20472;-81
2021/08/10 04:20:53;;;;;;;7.25;3.00;;;;;;;12.41;100.00;100532.63;4961207;28;20031;-80
2021/08/10 04:23:20;;;;;;;9.98;3.20;;;;;;;12.56;100.00;100532.22;4959511;28;20435;-80
2021/08/10 04:25:45;;;;;;;9.82;3.13;;;;;;;12.64;100.00;100525.03;4960129;28;20031;-80
2021/08/10 04:28:11;;;;;;;6.40;3.30;;;;;;;12.73;100.00;100523.94;4959668;28;20038;-80
2021/08/10 04:30:38;;;;;;;8.00;3.45;;;;;;;12.75;100.00;100523.91;4957944;28;20791;-80
2021/08/10 04:33:05;;;;;;;7.50;2.88;;;;;;;12.76;100.00;100530.81;5027420;23;20058;-81
2021/08/10 04:35:30;;;;;;;9.18;3.60;;;;;;;12.79;100.00;100528.13;4973833;28;20027;-81
2021/08/10 04:37:56;;;;;;;9.73;3.95;;;;;;;12.88;100.00;100535.66;4972593;29;20038;-81
2021/08/10 04:40:21;;;;;;;7.95;3.88;;;;;;;12.89;100.00;100534.75;4972184;29;20130;-80
2021/08/10 04:42:47;;;;;;;7.97;3.20;;;;;;;12.96;100.00;100531.09;4973041;28;20070;-80
2021/08/10 04:45:13;;;;;;;7.55;3.70;;;;;;;13.01;100.00;100539.63;4972040;29;20051;-80
2021/08/10 04:47:38;;;;;;;6.60;2.85;;;;;;;13.02;100.00;100541.34;4968639;28;20066;-80
2021/08/10 04:50:04;;;;;;;8.80;3.15;;;;;;;13.02;100.00;100532.66;4966893;28;20404;-80
2021/08/10 04:52:29;;;;;;;6.30;2.75;;;;;;;13.11;100.00;100541.06;4964930;28;20023;-80
2021/08/10 04:54:57;;;;;;;7.93;2.80;;;;;;;13.08;100.00;100540.28;4965235;28;20023;-80
2021/08/10 04:57:23;;;;;;;6.65;2.83;;;;;;;13.05;100.00;100541.25;4963774;29;20059;-80
2021/08/10 04:59:50;;;;;;;7.15;2.88;;;;;;;13.02;100.00;100543.97;4965366;28;20093;-81
2021/08/10 05:02:15;;;;;;;6.05;2.78;;;;;;;13.05;100.00;100543.88;4964135;28;20031;-80
2021/08/10 05:04:42;;;;;;;6.32;2.75;;;;;;;13.03;100.00;100532.63;4964633;28;20029;-80
2021/08/10 05:07:07;;;;;;;7.50;2.78;;;;;;;13.07;100.00;100536.84;4964008;29;20034;-81
2021/08/10 05:09:32;;;;;;;8.18;2.88;;;;;;;13.06;100.00;100527.34;4966298;29;20028;-80
2021/08/10 05:11:58;;;;;;;7.03;3.08;;;;;;;13.08;100.00;100535.09;4966498;28;20542;-80
2021/08/10 05:14:23;;;;;;;7.00;3.03;;;;;;;13.04;100.00;100541.28;4963253;28;20160;-80
2021/08/10 05:16:49;;;;;;;5.45;2.35;;;;;;;13.04;100.00;100531.72;4963997;28;20027;-80
2021/08/10 05:19:14;;;;;;;8.30;2.60;;;;;;;13.05;100.00;100536.06;4962190;29;20058;-80
2021/08/10 05:21:39;;;;;;;6.72;2.63;;;;;;;13.05;100.00;100540.38;4964739;28;20023;-81
2021/08/10 05:24:05;;;;;;;6.93;2.80;;;;;;;13.10;100.00;100538.50;4965043;28;20027;-80
2021/08/10 05:26:30;;;;;;;6.13;2.50;;;;;;;13.11;100.00;100537.59;4965146;29;20074;-80
2021/08/10 05:28:55;;;;;;;10.18;2.95;;;;;;;13.11;100.00;100546.25;4965036;28;20027;-81
2021/08/10 05:31:20;;;;;;;7.85;3.78;;;;;;;13.06;100.00;100545.56;4965973;29;20061;-81
2021/08/10 05:33:46;;;;;;;7.28;2.15;;;;;;;13.08;100.00;100542.91;4965897;28;20033;-81
2021/08/10 05:36:11;;;;;;;7.07;2.72;;;;;;;13.14;100.00;100543.56;4967821;28;20030;-81
2021/08/10 05:38:36;;;;;;;7.25;2.50;;;;;;;13.15;100.00;100536.63;4966366;28;20030;-81
2021/08/10 05:41:02;;;;;;;7.70;2.50;;;;;;;13.13;100.00;100539.28;4970100;28;20034;-81
2021/08/10 05:43:27;;;;;;;7.10;2.72;;;;;;;13.14;100.00;100542.72;4969097;28;20035;-81
2021/08/10 05:45:52;;;;;;;6.60;2.50;;;;;;;13.20;100.00;100544.28;4969381;29;20041;-80
2021/08/10 05:48:18;;;;;;;8.93;2.72;;;;;;;13.18;100.00;100548.69;4969390;29;20098;-80
2021/08/10 05:50:45;;;;;;;7.68;2.70;;;;;;;13.13;100.00;100541.88;4970745;28;20031;-81
2021/08/10 05:53:11;;;;;;;6.18;2.40;;;;;;;13.13;100.00;100534.06;4969648;28;20031;-80
2021/08/10 05:55:36;;;;;;;5.68;2.75;;;;;;;13.13;100.00;100530.59;4969563;28;20083;-81
2021/08/10 05:58:01;;;;;;;8.70;2.83;;;;;;;13.08;100.00;100522.94;4967850;29;20098;-81
2021/08/10 06:00:26;;;;;;;6.57;2.72;;;;;;;13.16;100.00;100529.66;4968961;28;20034;-80
2021/08/10 06:02:53;;;;;;;7.10;2.55;;;;;;;13.16;100.00;100532.28;4968241;28;20031;-80
2021/08/10 06:05:18;;;;;;;8.02;2.65;;;;;;;13.13;100.00;100528.84;4967996;29;20046;-81
2021/08/10 06:07:43;;;;;;;8.10;2.85;;;;;;;13.13;100.00;100520.19;4967220;29;20391;-81
2021/08/10 06:10:09;;;;;;;8.43;3.00;;;;;;;13.13;100.00;100523.66;4968402;28;20047;-81
2021/08/10 06:12:34;;;;;;;7.70;3.10;;;;;;;13.12;100.00;100518.50;4968326;28;20035;-81
2021/08/10 06:15:00;;;;;;;8.35;3.05;;;;;;;13.20;100.00;100507.84;4966426;29;20027;-81
2021/08/10 06:17:26;;;;;;;9.02;2.70;;;;;;;13.32;100.00;100507.50;4967192;28;20042;-81
2021/08/10 06:19:51;;;;;;;6.10;2.67;;;;;;;13.22;100.00;100506.06;4966702;29;20023;-81
2021/08/10 06:22:16;;;;;;;7.00;3.10;;;;;;;13.23;100.00;100508.59;4965913;28;20031;-81
2021/08/10 06:24:41;;;;;;;6.40;2.85;;;;;;;13.19;100.00;100507.00;4966725;29;20033;-81
2021/08/10 06:27:07;;;;;;;8.35;2.85;;;;;;;13.28;100.00;100509.34;4968225;28;20035;-81
2021/08/10 06:29:32;;;;;;;6.65;2.85;;;;;;;13.25;100.00;100509.44;4967590;29;20399;-81
2021/08/10 06:31:57;;;;;;;12.82;2.80;;;;;;;13.38;100.00;100522.09;4968646;28;20078;-82
2021/08/10 06:34:22;;;;;;;7.80;3.47;;;;;;;13.45;100.00;100515.78;4968027;28;20039;-81
2021/08/10 06:36:48;;;;;;;9.38;3.55;;;;;;;13.51;100.00;100523.41;4966190;29;20451;-82
2021/08/10 06:39:13;;;;;;;7.13;3.40;;;;;;;13.46;100.00;100523.56;4966896;29;20038;-82
2021/08/10 06:41:38;;;;;;;6.65;2.88;;;;;;;13.46;100.00;100520.97;4967006;29;20026;-81
2021/08/10 06:44:05;;;;;;;9.60;3.15;;;;;;;13.45;100.00;100523.59;4967089;28;20027;-81
2021/08/10 06:46:31;;;;;;;6.15;2.80;;;;;;;13.55;100.00;100523.28;4966048;28;20031;-81
2021/08/10 06:48:56;;;;;;;6.75;2.90;;;;;;;13.65;100.00;100525.63;4966915;29;20038;-81
2021/08/10 06:51:22;;;;;;;7.30;2.88;;;;;;;13.74;100.00;100520.09;4966567;28;20515;-81
2021/08/10 06:53:47;;;;;;;6.85;2.95;;;;;;;13.82;100.00;100516.34;4967107;28;20412;-81
2021/08/10 06:56:12;;;;;;;7.15;3.03;;;;;;;13.91;100.00;100523.00;4968090;28;20074;-81
2021/08/10 06:58:37;;;;;;;7.25;3.00;;;;;;;14.02;100.00;100518.31;4966010;29;20039;-81
2021/08/10 07:01:04;;;;;;;7.32;3.00;;;;;;;14.01;100.00;100524.44;4965584;29;20396;-81
2021/08/10 07:03:31;;;;;;;9.73;3.45;;;;;;;14.15;100.00;100512.69;4965575;28;20027;-81
2021/08/10 07:05:56;;;;;;;6.63;3.00;;;;;;;14.21;100.00;100512.47;4962788;29;20023;-81
2021/08/10 07:08:22;;;;;;;7.43;3.45;;;;;;;14.23;100.00;100508.06;4966794;28;20083;-81
2021/08/10 07:10:47;;;;;;;8.45;2.80;;;;;;;14.36;100.00;100519.78;4965632;28;20031;-81
2021/08/10 07:13:12;;;;;;;7.65;2.90;;;;;;;14.28;100.00;100524.38;4964698;28;20125;-81
2021/08/10 07:15:37;;;;;;;7.88;3.20;;;;;;;14.43;100.00;100521.25;4962680;29;20373;-81
2021/08/10 07:18:03;;;;;;;7.60;3.13;;;;;;;14.51;100.00;100523.66;4964486;28;20102;-81
2021/08/10 07:20:28;;;;;;;9.07;3.22;;;;;;;14.77;100.00;100540.97;4963321;29;20122;-81
2021/08/10 07:22:53;;;;;;;7.80;3.58;;;;;;;14.76;100.00;100534.06;4963631;28;20050;-81
2021/08/10 07:25:20;;;;;;;7.57;3.47;;;;;;;14.73;100.00;100532.41;4963802;29;20019;-81
2021/08/10 07:27:46;;;;;;;9.90;3.50;;;;;;;14.72;100.00;100542.91;4964484;28;20023;-81
2021/08/10 07:30:12;;;;;;;6.60;3.50;;;;;;;14.60;100.00;100535.53;4963889;28;20086;-81
2021/08/10 07:32:37;;;;;;;9.00;3.10;;;;;;;14.54;100.00;100533.97;4963899;28;20043;-82
2021/08/10 07:35:03;;;;;;;9.68;3.50;;;;;;;14.55;100.00;100540.88;4965095;28;20054;-82
2021/08/10 07:37:29;;;;;;;8.35;3.80;;;;;;;15.21;100.00;100551.56;4965747;28;20038;-82
2021/08/10 07:39:54;;;;;;;8.70;3.45;;;;;;;14.84;100.00;100539.88;4964183;29;20095;-82
2021/08/10 07:42:19;;;;;;;10.65;3.83;;;;;;;14.62;100.00;100544.97;4963662;28;20031;-81
2021/08/10 07:44:45;;;;;;;7.38;3.47;;;;;;;14.65;100.00;100542.25;4963974;29;20078;-81
2021/08/10 07:47:10;;;;;;;10.38;4.28;;;;;;;14.61;100.00;100532.00;4963056;29;20388;-81
2021/08/10 07:49:35;;;;;;;8.18;3.30;;;;;;;14.88;100.00;100551.91;4964327;28;20027;-81
2021/08/10 07:52:02;;;;;;;8.38;3.88;;;;;;;15.41;100.00;100546.44;4961483;29;20388;-81
2021/08/10 07:54:27;;;;;;;7.88;3.63;;;;;;;15.70;100.00;100539.25;4961532;28;20034;-81
2021/08/10 07:56:52;;;;;;;9.77;4.57;;;;;;;15.78;100.00;100539.78;4962435;29;20023;-81
2021/08/10 07:59:18;;;;;;;7.20;3.40;;;;;;;16.07;100.00;100541.25;4962195;29;20035;-81
2021/08/10 08:01:43;;;;;;;10.07;3.72;;;;;;;15.84;100.00;100542.16;4964739;28;20031;-82
2021/08/10 08:04:08;;;;;;;11.10;3.85;;;;;;;15.99;100.00;100535.47;4965790;28;20031;-82
2021/08/10 08:06:33;;;;;;;8.00;3.67;;;;;;;15.67;100.00;100528.94;4963011;29;20039;-82
2021/08/10 08:08:59;;;;;;;9.13;3.78;;;;;;;15.72;100.00;100532.19;4963865;29;20051;-83
2021/08/10 08:11:24;;;;;;;9.43;3.60;;;;;;;15.72;100.00;100532.19;4965496;28;20027;-83
2021/08/10 08:13:49;;;;;;;7.20;3.55;;;;;;;15.52;100.00;100530.34;4965795;28;20038;-82
2021/08/10 08:16:15;;;;;;;7.35;3.53;;;;;;;15.72;100.00;100529.56;4965208;28;20027;-82
2021/08/10 08:18:42;;;;;;;10.93;3.75;;;;;;;15.66;100.00;100535.00;4964871;28;20511;-82
2021/08/10 08:21:07;;;;;;;7.55;3.30;;;;;;;15.98;100.00;100530.28;4964713;28;20077;-82
2021/08/10 08:23:34;;;;;;;10.75;3.30;;;;;;;16.10;100.00;100535.00;4965005;28;20500;-82
2021/08/10 08:25:59;;;;;;;8.52;3.45;;;;;;;15.70;100.00;100541.88;4964386;29;20051;-82
2021/08/10 08:28:24;;;;;;;7.53;3.38;;;;;;;16.91;100.00;100525.47;4962608;29;20019;-81
2021/08/10 08:30:50;;;;;;;7.30;3.28;;;;;;;17.18;100.00;100532.06;4963119;29;20030;-81
2021/08/10 08:33:15;;;;;;;14.40;4.28;;;;;;;17.08;100.00;100528.16;4963166;28;20041;-81
2021/08/10 08:35:40;;;;;;;8.40;3.25;;;;;;;17.26;100.00;100532.53;4964209;29;20086;-82
2021/08/10 08:38:07;;;;;;;8.88;3.22;;;;;;;17.49;100.00;100528.84;4964247;29;20476;-82
2021/08/10 08:40:36;;;;;;;11.43;4.72;;;;;;;18.38;100.00;100529.75;4965699;28;20046;-81
2021/08/10 08:43:01;;;;;;;10.52;3.67;;;;;;;18.47;100.00;100519.69;4966099;28;20488;-81
2021/08/10 08:45:26;;;;;;;8.55;3.28;;;;;;;18.86;100.00;100529.94;4963766;29;20046;-81
2021/08/10 08:47:55;;;;;;;7.93;3.22;;;;;;;18.97;100.00;100532.84;4963653;29;20038;-82
2021/08/10 08:50:22;;;;;;;8.85;3.47;;;;;;;17.86;100.00;100534.16;4961663;29;20077;-82
2021/08/10 08:52:53;;;;;;;7.22;3.03;;;;;;;20.40;100.00;100522.16;4962921;28;20031;-82
2021/08/10 08:55:20;;;;;;;7.38;3.05;;;;;;;20.60;98.75;100521.00;4963162;28;20035;-82
2021/08/10 08:57:46;;;;;;;6.03;2.95;;;;;;;21.34;100.00;100525.19;4963001;28;20054;-81
2021/08/10 09:00:13;;;;;;;10.13;3.00;;;;;;;21.56;97.11;100517.63;4963384;28;20027;-81
2021/08/10 09:02:38;;;;;;;8.27;2.78;;;;;;;21.56;96.83;100522.91;4961578;28;20035;-81
2021/08/10 09:05:05;;;;;;;5.80;2.33;;;;;;;21.56;98.94;100527.31;4960054;29;20085;-81
2021/08/10 09:07:30;;;;;;;8.68;2.80;;;;;;;21.07;100.00;100511.94;4961632;28;20023;-81
2021/08/10 09:10:18;;;;;;;8.35;2.60;;;;;;;21.54;91.16;100505.47;4959824;29;20030;-81
2021/08/10 09:12:48;;;;;;;8.57;2.83;;;;;;;22.92;89.43;100509.34;4963721;28;20062;-81
2021/08/10 09:15:38;;;;;;;8.23;2.40;;;;;;;23.25;84.77;100500.84;4966033;28;20047;-81
2021/08/10 09:18:30;;;;;;;7.05;2.40;;;;;;;21.91;87.27;100500.41;4964262;29;20023;-81
2021/08/10 09:21:16;;;;;;;5.45;2.05;;;;;;;22.45;84.92;100492.38;4962549;29;20049;-81
2021/08/10 09:23:51;;;;;;;8.75;2.80;;;;;;;21.43;93.55;100497.38;4965042;28;20391;-81
2021/08/10 09:26:38;;;;;;;10.27;2.60;;;;;;;20.65;92.39;100485.50;4962851;29;20034;-81
2021/08/10 09:29:04;;;;;;;7.22;2.05;;;;;;;21.08;99.13;100479.34;4960988;29;20027;-82
2021/08/10 09:31:38;;;;;;;8.68;2.42;;;;;;;21.29;94.05;100485.91;4962250;28;20055;-81
2021/08/10 09:34:05;;;;;;;6.93;2.20;;;;;;;22.71;83.60;100486.09;4962826;28;20027;-81
2021/08/10 09:36:32;;;;;;;8.90;2.20;;;;;;;22.75;83.77;100484.97;4961883;28;20023;-81
2021/08/10 09:38:57;;;;;;;8.10;2.72;;;;;;;21.70;89.07;100482.38;4960173;29;20118;-81
2021/08/10 09:41:27;;;;;;;7.45;2.17;;;;;;;22.35;87.54;100481.56;4959431;29;20061;-81
2021/08/10 09:44:13;;;;;;;7.68;2.10;;;;;;;22.55;87.72;100487.28;4959634;28;20027;-81
2021/08/10 09:46:46;;;;;;;6.72;2.33;;;;;;;21.11;93.33;100489.69;4960773;29;20031;-81
2021/08/10 09:49:11;;;;;;;8.25;2.65;;;;;;;22.86;81.60;100478.91;4959455;29;20103;-82
2021/08/10 09:51:43;;;;;;;7.45;2.22;;;;;;;23.00;81.18;100483.25;4959376;28;20106;-83
2021/08/10 09:54:16;;;;;;;7.18;2.35;;;;;;;23.46;76.21;100477.28;4959335;28;20050;-83
2021/08/10 09:56:48;;;;;;;6.55;2.33;;;;;;;21.31;87.17;100476.09;4959067;28;20506;-82
2021/08/10 09:59:15;;;;;;;8.32;2.67;;;;;;;19.62;94.62;100472.25;4957449;29;20059;-82
2021/08/10 10:01:43;;;;;;;7.75;2.30;;;;;;;19.09;100.00;100484.03;4957329;29;20023;-82
2021/08/10 10:04:20;;;;;;;6.38;2.20;;;;;;;18.62;100.00;100482.13;4958837;28;20038;-82
2021/08/10 10:06:53;;;;;;;6.90;2.20;;;;;;;20.85;97.13;100480.81;4957453;28;20495;-82
2021/08/10 10:09:20;;;;;;;8.55;2.17;;;;;;;22.35;87.03;100473.63;4957551;29;20055;-81
2021/08/10 10:11:48;;;;;;;8.25;2.78;;;;;;;23.04;83.72;100476.78;4958739;28;20023;-81
2021/08/10 10:14:14;;;;;;;6.43;2.20;;;;;;;22.75;85.10;100477.03;4958663;28;20019;-82
2021/08/10 10:16:48;;;;;;;8.32;2.40;;;;;;;23.91;74.59;100473.97;4958757;28;20023;-82
2021/08/10 10:19:15;;;;;;;7.07;2.50;;;;;;;22.94;79.10;100478.41;4959043;28;20440;-81
2021/08/10 10:21:54;;;;;;;7.85;2.63;;;;;;;21.94;86.01;100471.16;4958353;28;20027;-81
2021/08/10 10:24:21;;;;;;;5.82;2.28;;;;;;;21.02;91.58;100469.19;4956451;28;20500;-81
2021/08/10 10:26:50;;;;;;;8.32;2.60;;;;;;;20.08;91.59;100468.78;4958774;28;20023;-81
2021/08/10 10:29:16;;;;;;;10.07;2.63;;;;;;;19.90;95.36;100471.53;4958788;28;20472;-82
2021/08/10 10:31:42;;;;;;;9.85;3.08;;;;;;;19.57;100.00;100466.41;4957945;29;20082;-81
2021/08/10 10:34:12;;;;;;;9.23;2.95;;;;;;;19.82;98.92;100470.28;4958106;28;20462;-81
2021/08/10 10:36:40;;;;;;;7.57;2.95;;;;;;;19.79;97.56;100471.31;4981624;22;20118;-81
2021/08/10 10:39:07;;;;;;;6.60;2.20;;;;;;;19.63;97.73;100455.53;4960893;28;20461;-82
2021/08/10 10:41:34;;;;;;;7.70;2.70;;;;;;;19.59;92.28;100463.72;4962299;28;20027;-82
2021/08/10 10:44:00;;;;;;;7.35;2.60;;;;;;;19.52;98.36;100469.31;4960043;29;20461;-82
2021/08/10 10:46:34;;;;;;;6.30;2.78;;;;;;;20.11;91.38;100468.59;4960213;28;20027;-82
2021/08/10 10:49:02;;;;;;;7.90;3.03;;;;;;;19.77;91.71;100470.56;4961247;29;20019;-81
2021/08/10 10:51:50;;;;;;;10.07;2.63;;;;;;;19.42;97.27;100480.44;4961387;29;20070;-80
2021/08/10 10:54:27;;;;;;;5.72;2.35;;;;;;;19.76;94.29;100472.34;4962500;29;20055;-81
2021/08/10 10:57:00;;;;;;;7.00;2.75;;;;;;;19.98;93.32;100479.84;4962806;28;20019;-80
2021/08/10 10:59:32;;;;;;;6.57;2.57;;;;;;;20.58;90.80;100468.38;4961801;29;20082;-81
2021/08/10 11:02:19;;;;;;;9.88;3.00;;;;;;;21.82;83.91;100462.25;4963958;28;20027;-82
2021/08/10 11:05:06;;;;;;;6.82;2.88;;;;;;;22.79;82.90;100472.34;4963070;28;20035;-81
2021/08/10 11:07:47;;;;;;;8.60;2.90;;;;;;;21.93;82.66;100459.75;4961814;28;20118;-81
2021/08/10 11:10:34;;;;;;;9.52;3.80;;;;;;;20.34;90.31;100462.78;4960052;29;20035;-81
2021/08/10 11:13:00;;;;;;;6.47;2.72;;;;;;;19.97;88.39;100469.41;4961230;29;20114;-80
2021/08/10 11:15:58;;;;;;;7.50;2.88;;;;;;;19.55;91.13;100461.25;4961161;29;20114;-81
2021/08/10 11:18:26;;;;;;;5.93;2.63;;;;;;;19.39;93.59;100465.66;4939722;29;20035;-81
2021/08/10 11:21:11;;;;;;;10.10;3.00;;;;;;;19.14;99.29;100470.59;4962111;28;20034;-82